Atlantic Osprey — CFH8950 — position and weather

sailwx.info

Track history (hours):
 
Tides and Currents Weather Stations Pressure Air Temp Water Temp Dewpoint Dewpoint Depression Visibility Wind Speed Wind Dir Waves Ship Positions

Atlantic Osprey

Last reported at 2014-Jul-16 10:22 UTC. Time now 2014-Jul-22 23:16 UTC.
Position N 47°27' W 052°01'.

Length 3 m; draft 6.6 m.

Type: Tug. MMSI: 316004850.

Date/timePositionNaut miles runAvg speedWind from/ knotsBaromVisibWave heightAir tempDewpointWater temp
2014-Jul-16 10:22N 47°27' W 052°01'910.6
2014-Jul-16 09:29N 47°30' W 052°14'1010.9
2014-Jul-16 08:32N 47°33' W 052°29'9 8.7
2014-Jul-16 07:30N 47°34' W 052°42'0 0.0
2014-Jul-16 06:28N 47°34' W 052°42'0 0.0
2014-Jul-16 05:32N 47°34' W 052°42'0 0.0
2014-Jul-16 04:31N 47°34' W 052°42'0 0.0
2014-Jul-16 03:29N 47°34' W 052°42'0 0.0
2014-Jul-16 02:31N 47°34' W 052°42'0 0.0
2014-Jul-16 01:29N 47°34' W 052°42'0 0.0
2014-Jul-16 00:32N 47°34' W 052°42'0 0.0
2014-Jul-15 23:31N 47°34' W 052°42'0 0.0
2014-Jul-15 22:29N 47°34' W 052°42'0 0.0
2014-Jul-15 21:32N 47°34' W 052°42'0 0.0
2014-Jul-15 20:31N 47°34' W 052°42'0 0.0
2014-Jul-15 19:29N 47°34' W 052°42'0 0.0
2014-Jul-15 18:33N 47°34' W 052°42'0 0.0
2014-Jul-15 17:32N 47°34' W 052°42'0 0.0
2014-Jul-15 16:29N 47°34' W 052°42'0 0.0
2014-Jul-15 15:33N 47°34' W 052°42'0 0.0
2014-Jul-15 14:32N 47°34' W 052°42'0 0.0
2014-Jul-15 13:30N 47°34' W 052°42'0 0.0
2014-Jul-15 12:33N 47°34' W 052°42'0 0.0
2014-Jul-15 11:30N 47°34' W 052°42'0 0.0
2014-Jul-15 10:29N 47°34' W 052°42'0 0.0
2014-Jul-15 09:33N 47°34' W 052°42'0 0.0
2014-Jul-15 08:32N 47°34' W 052°42'0 0.0
2014-Jul-15 07:31N 47°34' W 052°42'0 0.0
2014-Jul-15 06:29N 47°34' W 052°42'0 0.0
2014-Jul-15 05:33N 47°34' W 052°42'0 0.0
2014-Jul-15 04:33N 47°34' W 052°42'0 0.0
2014-Jul-15 03:26N 47°34' W 052°42'0 0.0
2014-Jul-15 02:28N 47°34' W 052°42'0 0.0
2014-Jul-15 01:33N 47°34' W 052°42'0 0.0
2014-Jul-15 00:30N 47°34' W 052°42'0 0.0
2014-Jul-14 23:31N 47°34' W 052°42'0 0.1
2014-Jul-14 22:29N 47°34' W 052°42'0 0.4
2014-Jul-14 21:30N 47°34' W 052°42'0 0.0
2014-Jul-14 20:29N 47°34' W 052°42'0 0.0
2014-Jul-14 19:24N 47°34' W 052°42'0 0.0
2014-Jul-14 18:33N 47°34' W 052°42'0 0.0
2014-Jul-14 17:29N 47°34' W 052°42'0 0.0
2014-Jul-14 16:32N 47°34' W 052°42'0 0.0
2014-Jul-14 15:30N 47°34' W 052°42'0 0.0
2014-Jul-14 14:29N 47°34' W 052°42'0 0.2
2014-Jul-14 13:33N 47°34' W 052°42'0 0.3
2014-Jul-14 12:31N 47°34' W 052°42'0 0.0
2014-Jul-14 11:29N 47°34' W 052°42'0 0.0
2014-Jul-14 10:33N 47°34' W 052°42'0 0.4
2014-Jul-14 09:32N 47°34' W 052°41'9 9.3
2014-Jul-14 08:31N 47°33' W 052°27'10 9.6
2014-Jul-14 07:28N 47°31' W 052°13'9 9.4
2014-Jul-14 06:28N 47°29' W 051°59'12 9.6
2014-Jul-14 05:14N 47°26' W 051°43'  
2014-Jul-10 20:12N 47°16' W 052°31'9 0.8
2014-Jul-10 09:33N 47°23' W 052°39'10 9.9
2014-Jul-10 08:32N 47°33' W 052°36'4 4.0
2014-Jul-10 07:31N 47°34' W 052°42'0 0.0
2014-Jul-10 06:29N 47°34' W 052°42'0 0.0
2014-Jul-10 05:33N 47°34' W 052°42'0 0.0
2014-Jul-10 04:31N 47°34' W 052°42'0 0.0
2014-Jul-10 03:29N 47°34' W 052°42'0 0.0
2014-Jul-10 02:33N 47°34' W 052°42'0 0.0
2014-Jul-10 01:32N 47°34' W 052°42'0 0.0
2014-Jul-10 00:31N 47°34' W 052°42'0 0.0
2014-Jul-09 23:30N 47°34' W 052°42'0 0.0
2014-Jul-09 22:29N 47°34' W 052°42'0 0.4
2014-Jul-09 21:33N 47°34' W 052°42'0 0.0
2014-Jul-09 20:30N 47°34' W 052°42'0 0.0
2014-Jul-09 19:33N 47°34' W 052°42'0 0.0
2014-Jul-09 18:32N 47°34' W 052°42'0 0.0
2014-Jul-09 17:30N 47°34' W 052°42'0 0.0
2014-Jul-09 16:33N 47°34' W 052°42'0 0.0
2014-Jul-09 15:31N 47°34' W 052°42'0 0.0
2014-Jul-09 14:28N 47°34' W 052°42'0 0.0
2014-Jul-09 13:32N 47°34' W 052°42'0 0.0
2014-Jul-09 12:31N 47°34' W 052°42'0 0.0
2014-Jul-09 11:29N 47°34' W 052°42'0 0.0
2014-Jul-09 10:31N 47°34' W 052°42'0 0.0
2014-Jul-09 09:29N 47°34' W 052°42'0 0.0
2014-Jul-09 08:33N 47°34' W 052°42'0 0.0
2014-Jul-09 07:31N 47°34' W 052°42'0 0.0
2014-Jul-09 06:29N 47°34' W 052°42'0 0.0
2014-Jul-09 05:33N 47°34' W 052°42'0 0.0
2014-Jul-09 04:31N 47°34' W 052°42'0 0.0
2014-Jul-09 03:30N 47°34' W 052°42'0 0.0
2014-Jul-09 02:33N 47°34' W 052°42'0 0.0
2014-Jul-09 01:32N 47°34' W 052°42'0 0.0
2014-Jul-09 00:30N 47°34' W 052°42'0 0.0
2014-Jul-08 23:32N 47°34' W 052°42'0 0.0
2014-Jul-08 22:30N 47°34' W 052°42'0 0.1
2014-Jul-08 21:29N 47°34' W 052°42'0 0.2
2014-Jul-08 20:33N 47°34' W 052°42'0 0.3
2014-Jul-08 19:32N 47°34' W 052°42'0 0.0
2014-Jul-08 18:30N 47°34' W 052°42'0 0.0
2014-Jul-08 17:29N 47°34' W 052°42'0 0.0
2014-Jul-08 16:32N 47°34' W 052°42'0 0.1
2014-Jul-08 15:30N 47°34' W 052°42'7 7.4
2014-Jul-08 14:32N 47°33' W 052°31'1211.5
2014-Jul-08 13:28N 47°31' W 052°14'2311.8
2014-Jul-08 11:29N 47°25' W 051°40'  
Track history (hours):
 
Tides and Currents Weather Stations Pressure Air Temp Water Temp Dewpoint Dewpoint Depression Visibility Wind Speed Wind Dir Waves Ship Positions

Atlantic Osprey

Last reported at 2014-Jul-16 10:22 UTC. Time now 2014-Jul-22 23:16 UTC.
Position N 47°27' W 052°01'.

Length 3 m; draft 6.6 m.

Type: Tug. MMSI: 316004850.

Date/timePositionNaut miles runAvg speedWind from/ knotsBaromVisibWave heightAir tempDewpointWater temp
2014-Jul-16 10:22N 47°27' W 052°01'910.6
2014-Jul-16 09:29N 47°30' W 052°14'1010.9
2014-Jul-16 08:32N 47°33' W 052°29'9 8.7
2014-Jul-16 07:30N 47°34' W 052°42'0 0.0
2014-Jul-16 06:28N 47°34' W 052°42'0 0.0
2014-Jul-16 05:32N 47°34' W 052°42'0 0.0
2014-Jul-16 04:31N 47°34' W 052°42'0 0.0
2014-Jul-16 03:29N 47°34' W 052°42'0 0.0
2014-Jul-16 02:31N 47°34' W 052°42'0 0.0
2014-Jul-16 01:29N 47°34' W 052°42'0 0.0
2014-Jul-16 00:32N 47°34' W 052°42'0 0.0
2014-Jul-15 23:31N 47°34' W 052°42'0 0.0
2014-Jul-15 22:29N 47°34' W 052°42'0 0.0
2014-Jul-15 21:32N 47°34' W 052°42'0 0.0
2014-Jul-15 20:31N 47°34' W 052°42'0 0.0
2014-Jul-15 19:29N 47°34' W 052°42'0 0.0
2014-Jul-15 18:33N 47°34' W 052°42'0 0.0
2014-Jul-15 17:32N 47°34' W 052°42'0 0.0
2014-Jul-15 16:29N 47°34' W 052°42'0 0.0
2014-Jul-15 15:33N 47°34' W 052°42'0 0.0
2014-Jul-15 14:32N 47°34' W 052°42'0 0.0
2014-Jul-15 13:30N 47°34' W 052°42'0 0.0
2014-Jul-15 12:33N 47°34' W 052°42'0 0.0
2014-Jul-15 11:30N 47°34' W 052°42'0 0.0
2014-Jul-15 10:29N 47°34' W 052°42'0 0.0
2014-Jul-15 09:33N 47°34' W 052°42'0 0.0
2014-Jul-15 08:32N 47°34' W 052°42'0 0.0
2014-Jul-15 07:31N 47°34' W 052°42'0 0.0
2014-Jul-15 06:29N 47°34' W 052°42'0 0.0
2014-Jul-15 05:33N 47°34' W 052°42'0 0.0
2014-Jul-15 04:33N 47°34' W 052°42'0 0.0
2014-Jul-15 03:26N 47°34' W 052°42'0 0.0
2014-Jul-15 02:28N 47°34' W 052°42'0 0.0
2014-Jul-15 01:33N 47°34' W 052°42'0 0.0
2014-Jul-15 00:30N 47°34' W 052°42'0 0.0
2014-Jul-14 23:31N 47°34' W 052°42'0 0.1
2014-Jul-14 22:29N 47°34' W 052°42'0 0.4
2014-Jul-14 21:30N 47°34' W 052°42'0 0.0
2014-Jul-14 20:29N 47°34' W 052°42'0 0.0
2014-Jul-14 19:24N 47°34' W 052°42'0 0.0
2014-Jul-14 18:33N 47°34' W 052°42'0 0.0
2014-Jul-14 17:29N 47°34' W 052°42'0 0.0
2014-Jul-14 16:32N 47°34' W 052°42'0 0.0
2014-Jul-14 15:30N 47°34' W 052°42'0 0.0
2014-Jul-14 14:29N 47°34' W 052°42'0 0.2
2014-Jul-14 13:33N 47°34' W 052°42'0 0.3
2014-Jul-14 12:31N 47°34' W 052°42'0 0.0
2014-Jul-14 11:29N 47°34' W 052°42'0 0.0
2014-Jul-14 10:33N 47°34' W 052°42'0 0.4
2014-Jul-14 09:32N 47°34' W 052°41'9 9.3
2014-Jul-14 08:31N 47°33' W 052°27'10 9.6
2014-Jul-14 07:28N 47°31' W 052°13'9 9.4
2014-Jul-14 06:28N 47°29' W 051°59'12 9.6
2014-Jul-14 05:14N 47°26' W 051°43'  
2014-Jul-10 20:12N 47°16' W 052°31'9 0.8
2014-Jul-10 09:33N 47°23' W 052°39'10 9.9
2014-Jul-10 08:32N 47°33' W 052°36'4 4.0
2014-Jul-10 07:31N 47°34' W 052°42'0 0.0
2014-Jul-10 06:29N 47°34' W 052°42'0 0.0
2014-Jul-10 05:33N 47°34' W 052°42'0 0.0
2014-Jul-10 04:31N 47°34' W 052°42'0 0.0
2014-Jul-10 03:29N 47°34' W 052°42'0 0.0
2014-Jul-10 02:33N 47°34' W 052°42'0 0.0
2014-Jul-10 01:32N 47°34' W 052°42'0 0.0
2014-Jul-10 00:31N 47°34' W 052°42'0 0.0
2014-Jul-09 23:30N 47°34' W 052°42'0 0.0
2014-Jul-09 22:29N 47°34' W 052°42'0 0.4
2014-Jul-09 21:33N 47°34' W 052°42'0 0.0
2014-Jul-09 20:30N 47°34' W 052°42'0 0.0
2014-Jul-09 19:33N 47°34' W 052°42'0 0.0
2014-Jul-09 18:32N 47°34' W 052°42'0 0.0
2014-Jul-09 17:30N 47°34' W 052°42'0 0.0
2014-Jul-09 16:33N 47°34' W 052°42'0 0.0
2014-Jul-09 15:31N 47°34' W 052°42'0 0.0
2014-Jul-09 14:28N 47°34' W 052°42'0 0.0
2014-Jul-09 13:32N 47°34' W 052°42'0 0.0
2014-Jul-09 12:31N 47°34' W 052°42'0 0.0
2014-Jul-09 11:29N 47°34' W 052°42'0 0.0
2014-Jul-09 10:31N 47°34' W 052°42'0 0.0
2014-Jul-09 09:29N 47°34' W 052°42'0 0.0
2014-Jul-09 08:33N 47°34' W 052°42'0 0.0
2014-Jul-09 07:31N 47°34' W 052°42'0 0.0
2014-Jul-09 06:29N 47°34' W 052°42'0 0.0
2014-Jul-09 05:33N 47°34' W 052°42'0 0.0
2014-Jul-09 04:31N 47°34' W 052°42'0 0.0
2014-Jul-09 03:30N 47°34' W 052°42'0 0.0
2014-Jul-09 02:33N 47°34' W 052°42'0 0.0
2014-Jul-09 01:32N 47°34' W 052°42'0 0.0
2014-Jul-09 00:30N 47°34' W 052°42'0 0.0
2014-Jul-08 23:32N 47°34' W 052°42'0 0.0
2014-Jul-08 22:30N 47°34' W 052°42'0 0.1
2014-Jul-08 21:29N 47°34' W 052°42'0 0.2
2014-Jul-08 20:33N 47°34' W 052°42'0 0.3
2014-Jul-08 19:32N 47°34' W 052°42'0 0.0
2014-Jul-08 18:30N 47°34' W 052°42'0 0.0
2014-Jul-08 17:29N 47°34' W 052°42'0 0.0
2014-Jul-08 16:32N 47°34' W 052°42'0 0.1
2014-Jul-08 15:30N 47°34' W 052°42'7 7.4
2014-Jul-08 14:32N 47°33' W 052°31'1211.5
2014-Jul-08 13:28N 47°31' W 052°14'2311.8
2014-Jul-08 11:29N 47°25' W 051°40'  

Dump ship's entire track history